Time;durP1;ratioP1;P1;durP2;ratioP2;P2;SDS_P1;SDS_P2;PMS_P1;PMS_P2;Temp;Humidity;BMP_temperature;BMP_pressure;BME280_temperature;BME280_humidity;BME280_pressure;Samples;Min_cycle;Max_cycle;Signal;HPM_P1;HPM_P2
2021/10/22 00:00:39;;;;;;;3.85;2.08;;;6.70;89.30;;;;;;4938423;29;20075;-59
2021/10/22 00:03:06;;;;;;;11.02;2.45;;;6.70;89.30;;;;;;4938192;29;20183;-59
2021/10/22 00:05:33;;;;;;;6.20;2.22;;;6.70;89.30;;;;;;4936801;29;20047;-59
2021/10/22 00:08:00;;;;;;;8.23;2.72;;;6.70;89.40;;;;;;4940134;28;20114;-59
2021/10/22 00:10:27;;;;;;;5.28;1.27;;;6.60;89.50;;;;;;4935488;29;20040;-60
2021/10/22 00:12:54;;;;;;;14.57;1.92;;;6.60;89.40;;;;;;4939501;29;20136;-60
2021/10/22 00:15:21;;;;;;;9.27;1.80;;;6.60;89.40;;;;;;4935096;28;20055;-60
2021/10/22 00:17:48;;;;;;;7.25;2.22;;;6.70;89.60;;;;;;4941141;29;20075;-60
2021/10/22 00:20:16;;;;;;;5.03;2.90;;;6.70;89.40;;;;;;4950672;28;20102;-60
2021/10/22 00:22:43;;;;;;;10.20;1.95;;;6.70;89.60;;;;;;4941680;29;20043;-60
2021/10/22 00:25:10;;;;;;;11.90;1.80;;;6.60;89.30;;;;;;4944782;29;20084;-59
2021/10/22 00:27:36;;;;;;;10.77;2.13;;;6.60;89.60;;;;;;4938580;29;20070;-59
2021/10/22 00:30:04;;;;;;;9.88;2.40;;;6.60;89.60;;;;;;4941123;28;20061;-60
2021/10/22 00:32:31;;;;;;;9.68;2.50;;;6.70;89.50;;;;;;4942240;29;20058;-59
2021/10/22 00:34:57;;;;;;;9.02;2.40;;;6.60;89.60;;;;;;4934681;29;20039;-59
2021/10/22 00:37:24;;;;;;;6.00;1.95;;;6.40;89.50;;;;;;4942732;29;20078;-59
2021/10/22 00:39:52;;;;;;;5.82;2.00;;;6.60;89.80;;;;;;4934568;29;20158;-60
2021/10/22 00:42:19;;;;;;;12.23;2.45;;;6.60;89.60;;;;;;4940662;29;20047;-60
2021/10/22 00:44:47;;;;;;;8.10;2.20;;;6.70;89.60;;;;;;4605795;28;10000613;-59
2021/10/22 00:47:14;;;;;;;4.57;1.45;;;6.60;89.50;;;;;;4955912;28;20051;-60
2021/10/22 00:49:40;;;;;;;4.80;1.98;;;6.60;89.70;;;;;;4934768;29;20044;-59
2021/10/22 00:52:07;;;;;;;8.32;1.85;;;6.60;89.60;;;;;;4932070;29;20111;-59
2021/10/22 00:54:34;;;;;;;4.93;1.75;;;6.60;89.70;;;;;;4923564;29;20534;-59
2021/10/22 00:57:02;;;;;;;11.80;2.13;;;6.60;89.60;;;;;;4944548;29;20107;-60
2021/10/22 00:59:28;;;;;;;9.07;2.00;;;6.60;89.60;;;;;;4935552;29;20040;-59
2021/10/22 01:01:55;;;;;;;9.48;1.63;;;6.60;89.90;;;;;;4935005;28;20048;-60
2021/10/22 01:04:23;;;;;;;7.18;1.67;;;6.70;89.80;;;;;;4941607;29;20119;-59
2021/10/22 01:06:50;;;;;;;3.85;1.27;;;6.60;89.80;;;;;;4944858;29;20044;-59
2021/10/22 01:09:16;;;;;;;6.70;1.70;;;6.60;89.70;;;;;;4939662;29;20196;-59
2021/10/22 01:11:43;;;;;;;6.22;2.25;;;6.50;90.00;;;;;;4959688;28;20047;-60
2021/10/22 01:14:11;;;;;;;7.10;2.15;;;6.60;90.00;;;;;;4939087;29;20094;-60
2021/10/22 01:16:41;;;;;;;6.28;1.63;;;6.50;90.00;;;;;;4945978;29;20051;-60
2021/10/22 01:19:13;;;;;;;7.32;1.77;;;6.50;90.30;;;;;;4938014;29;20082;-60
2021/10/22 01:21:40;;;;;;;20.67;2.00;;;6.50;90.30;;;;;;4945823;28;20086;-59
2021/10/22 01:24:07;;;;;;;3.50;1.35;;;6.50;90.10;;;;;;4943266;29;20051;-59
2021/10/22 01:26:34;;;;;;;11.05;2.28;;;6.50;90.20;;;;;;4935491;29;20130;-61
2021/10/22 01:29:01;;;;;;;9.73;2.00;;;6.50;90.60;;;;;;4958636;28;20054;-59
2021/10/22 01:31:28;;;;;;;2.83;1.20;;;6.50;90.40;;;;;;4948718;29;20529;-59
2021/10/22 01:33:55;;;;;;;10.80;1.60;;;6.40;90.30;;;;;;4944331;29;20047;-60
2021/10/22 01:36:23;;;;;;;7.47;1.73;;;6.40;90.30;;;;;;4946994;29;20099;-59
2021/10/22 01:38:50;;;;;;;5.85;1.50;;;6.40;90.40;;;;;;4946545;29;20098;-60
2021/10/22 01:41:17;;;;;;;6.43;2.40;;;6.40;90.50;;;;;;4944560;29;20048;-59
2021/10/22 01:43:46;;;;;;;5.35;1.40;;;6.40;90.40;;;;;;4963083;28;20105;-59
2021/10/22 01:46:12;;;;;;;3.22;1.30;;;6.50;90.50;;;;;;4944256;29;20077;-59
2021/10/22 01:48:40;;;;;;;14.10;2.22;;;6.50;90.50;;;;;;4947235;29;20593;-59
2021/10/22 01:51:07;;;;;;;8.32;1.70;;;6.50;90.40;;;;;;4944005;29;20106;-60
2021/10/22 01:53:34;;;;;;;7.25;1.60;;;6.50;91.10;;;;;;4932512;29;20120;-60
2021/10/22 01:56:01;;;;;;;10.18;2.03;;;6.50;90.30;;;;;;4943819;29;20118;-60
2021/10/22 01:58:28;;;;;;;7.95;1.33;;;6.50;90.40;;;;;;4945781;29;20098;-60
2021/10/22 02:00:55;;;;;;;3.20;1.50;;;6.50;90.30;;;;;;4938126;28;20047;-60
2021/10/22 02:03:22;;;;;;;11.23;1.70;;;6.50;90.40;;;;;;4945946;29;20166;-60
2021/10/22 02:05:49;;;;;;;11.82;1.85;;;6.50;90.50;;;;;;4941502;29;20047;-60
2021/10/22 02:08:15;;;;;;;14.00;2.30;;;6.50;90.50;;;;;;4942185;29;20212;-59
2021/10/22 02:10:42;;;;;;;7.35;1.67;;;6.50;90.40;;;;;;4944206;29;20491;-60
2021/10/22 02:13:09;;;;;;;9.05;2.78;;;6.50;90.60;;;;;;4941824;29;20061;-59
2021/10/22 02:15:36;;;;;;;8.65;2.38;;;6.50;90.40;;;;;;4940873;29;20542;-59
2021/10/22 02:18:03;;;;;;;12.95;3.10;;;6.50;90.40;;;;;;4945870;29;20063;-60
2021/10/22 02:20:29;;;;;;;12.73;2.42;;;6.50;90.40;;;;;;4942805;29;20051;-60
2021/10/22 02:22:56;;;;;;;9.95;2.20;;;6.60;90.50;;;;;;4939040;29;20095;-60
2021/10/22 02:25:23;;;;;;;12.20;1.58;;;6.60;90.30;;;;;;4945089;29;20444;-60
2021/10/22 02:27:52;;;;;;;9.38;1.60;;;6.70;90.30;;;;;;4943942;29;20099;-60
2021/10/22 02:30:20;;;;;;;7.53;1.98;;;6.70;90.40;;;;;;4943513;29;20082;-60
2021/10/22 02:32:47;;;;;;;6.00;1.52;;;6.70;90.30;;;;;;4941971;29;20051;-60
2021/10/22 02:35:13;;;;;;;9.50;1.80;;;6.70;90.40;;;;;;4952074;28;20081;-60
2021/10/22 02:37:42;;;;;;;5.55;1.33;;;6.80;90.20;;;;;;4942241;29;20076;-60
2021/10/22 02:40:10;;;;;;;8.23;2.60;;;6.80;90.10;;;;;;4944434;29;20047;-60
2021/10/22 02:42:36;;;;;;;9.82;2.10;;;6.80;90.20;;;;;;4941942;29;20087;-61
2021/10/22 02:45:04;;;;;;;8.35;2.53;;;6.80;90.20;;;;;;4952696;28;20048;-59
2021/10/22 02:47:31;;;;;;;10.38;2.50;;;6.90;90.20;;;;;;4937589;29;20043;-60
2021/10/22 02:49:57;;;;;;;12.65;1.67;;;6.80;90.10;;;;;;4939469;29;20083;-60
2021/10/22 02:52:24;;;;;;;24.60;3.67;;;6.90;90.10;;;;;;4944106;29;20102;-60
2021/10/22 02:54:51;;;;;;;12.77;2.20;;;6.80;90.20;;;;;;4943688;29;20051;-60
2021/10/22 02:57:18;;;;;;;6.10;2.45;;;6.90;90.30;;;;;;4939880;29;20079;-59
2021/10/22 02:59:44;;;;;;;8.60;2.20;;;6.90;90.20;;;;;;4944304;29;20695;-59
2021/10/22 03:02:11;;;;;;;5.53;1.30;;;6.80;90.10;;;;;;4944361;29;20078;-59
2021/10/22 03:04:38;;;;;;;9.77;2.40;;;6.80;90.10;;;;;;4927971;29;20048;-59
2021/10/22 03:07:05;;;;;;;10.15;1.67;;;6.80;90.30;;;;;;4942366;29;20079;-59
2021/10/22 03:09:32;;;;;;;6.50;2.35;;;6.80;90.40;;;;;;4938725;29;20055;-59
2021/10/22 03:11:59;;;;;;;10.20;1.65;;;6.80;90.30;;;;;;4940412;29;20051;-59
2021/10/22 03:14:25;;;;;;;12.40;1.80;;;6.80;90.40;;;;;;4940529;28;20327;-59
2021/10/22 03:16:52;;;;;;;6.15;1.70;;;6.80;90.50;;;;;;4937589;29;20130;-59
2021/10/22 03:19:19;;;;;;;13.73;1.60;;;6.80;90.50;;;;;;4941211;29;20056;-60
2021/10/22 03:21:46;;;;;;;7.63;2.40;;;6.80;90.40;;;;;;4936679;28;20051;-59
2021/10/22 03:24:13;;;;;;;8.30;1.92;;;6.80;90.50;;;;;;4957353;28;20102;-60
2021/10/22 03:26:40;;;;;;;8.02;1.50;;;6.80;90.70;;;;;;4945313;29;20094;-59
2021/10/22 03:29:08;;;;;;;7.18;1.50;;;6.70;90.60;;;;;;4936859;29;20071;-58
2021/10/22 03:31:35;;;;;;;11.85;2.00;;;6.70;90.60;;;;;;4936870;29;20071;-59
2021/10/22 03:34:02;;;;;;;4.85;1.30;;;6.70;90.70;;;;;;4938970;29;20048;-58
2021/10/22 03:36:29;;;;;;;10.82;1.52;;;6.70;90.80;;;;;;4946101;29;20514;-59
2021/10/22 03:38:56;;;;;;;14.20;1.95;;;6.60;90.70;;;;;;4938549;29;20051;-59
2021/10/22 03:41:23;;;;;;;14.20;3.42;;;6.60;90.70;;;;;;4960586;28;20051;-60
2021/10/22 03:43:50;;;;;;;7.55;1.70;;;6.60;90.80;;;;;;4937714;29;20539;-59
2021/10/22 03:46:17;;;;;;;7.55;2.13;;;6.60;90.70;;;;;;4944218;29;20047;-58
2021/10/22 03:48:43;;;;;;;8.13;1.70;;;6.50;90.90;;;;;;4936956;29;20051;-59
2021/10/22 03:51:10;;;;;;;11.70;1.92;;;6.50;90.90;;;;;;4949959;28;20052;-60
2021/10/22 03:53:37;;;;;;;11.65;2.40;;;6.50;90.90;;;;;;4940898;29;20102;-60
2021/10/22 03:56:04;;;;;;;12.80;1.98;;;6.50;91.20;;;;;;4937731;29;20103;-59
2021/10/22 03:58:32;;;;;;;12.05;2.33;;;6.50;91.10;;;;;;4952137;28;20043;-59
2021/10/22 04:00:59;;;;;;;11.52;2.03;;;6.50;90.90;;;;;;4941677;29;20066;-60
2021/10/22 04:03:26;;;;;;;12.70;2.63;;;6.40;91.20;;;;;;4928612;29;20507;-60
2021/10/22 04:05:53;;;;;;;4.80;1.55;;;6.40;91.10;;;;;;4937155;29;20176;-60
2021/10/22 04:08:21;;;;;;;11.63;1.75;;;6.40;91.20;;;;;;4960647;28;20074;-59
2021/10/22 04:10:48;;;;;;;13.27;2.47;;;6.40;91.30;;;;;;4941289;29;20083;-59
2021/10/22 04:13:14;;;;;;;9.45;1.77;;;6.40;91.30;;;;;;4945882;29;20079;-58
2021/10/22 04:15:41;;;;;;;5.25;1.45;;;6.40;91.10;;;;;;4943787;28;20055;-59
2021/10/22 04:18:08;;;;;;;9.70;1.90;;;6.50;91.00;;;;;;4936467;29;20079;-59
2021/10/22 04:20:35;;;;;;;3.97;1.85;;;6.50;91.10;;;;;;4956865;28;20048;-59
2021/10/22 04:23:07;;;;;;;6.88;1.73;;;6.40;91.20;;;;;;4935792;29;20087;-59
2021/10/22 04:25:36;;;;;;;8.80;2.17;;;6.50;91.10;;;;;;4942160;29;20048;-59
2021/10/22 04:28:04;;;;;;;8.23;2.25;;;6.50;91.20;;;;;;4935233;29;20048;-59
2021/10/22 04:30:30;;;;;;;12.80;1.77;;;6.50;91.00;;;;;;4942946;29;20095;-58
2021/10/22 04:32:58;;;;;;;10.38;3.33;;;6.50;91.00;;;;;;4937776;29;20111;-58
2021/10/22 04:35:25;;;;;;;16.45;3.58;;;6.50;91.30;;;;;;4946038;29;20491;-59
2021/10/22 04:40:31;;;;;;;9.20;2.13;;;6.60;91.00;;;;;;4942133;29;20107;-59
2021/10/22 04:43:16;;;;;;;8.70;1.60;;;6.60;91.20;;;;;;4935230;29;20316;-59
2021/10/22 04:45:44;;;;;;;15.70;2.33;;;6.60;91.40;;;;;;4943199;29;20050;-58
2021/10/22 04:48:12;;;;;;;14.55;2.20;;;6.70;91.60;;;;;;4954306;28;20055;-59
2021/10/22 04:50:47;;;;;;;9.38;1.33;;;6.60;91.20;;;;;;4944518;29;20581;-59
2021/10/22 04:53:14;;;;;;;5.35;2.63;;;6.70;91.30;;;;;;4927285;29;20138;-59
2021/10/22 04:55:41;;;;;;;10.07;2.03;;;6.70;91.30;;;;;;4942038;29;20102;-59
2021/10/22 04:58:08;;;;;;;10.82;2.35;;;6.70;91.20;;;;;;4937316;29;20079;-58
2021/10/22 05:00:54;;;;;;;9.15;1.63;;;6.70;91.30;;;;;;4948051;28;20418;-60
2021/10/22 05:03:22;;;;;;;6.55;1.70;;;6.70;91.30;;;;;;4939133;29;20051;-59
2021/10/22 05:05:48;;;;;;;16.50;2.08;;;6.70;91.10;;;;;;4942346;29;20503;-59
2021/10/22 05:08:15;;;;;;;10.07;1.58;;;6.60;91.30;;;;;;4956886;28;20586;-59
2021/10/22 05:10:42;;;;;;;6.72;1.35;;;6.60;91.50;;;;;;4939881;29;20106;-59
2021/10/22 05:13:09;;;;;;;13.32;1.80;;;6.60;91.50;;;;;;4958108;28;20118;-59
2021/10/22 05:15:36;;;;;;;9.50;1.70;;;6.70;91.50;;;;;;4938616;29;20538;-58
2021/10/22 05:18:03;;;;;;;8.35;1.92;;;6.60;91.30;;;;;;4943108;28;20066;-59
2021/10/22 05:20:30;;;;;;;6.88;1.90;;;6.60;91.40;;;;;;4938783;29;20103;-59
2021/10/22 05:22:57;;;;;;;9.50;2.05;;;6.50;91.60;;;;;;4943519;29;20044;-59
2021/10/22 05:25:24;;;;;;;6.95;1.52;;;6.50;91.70;;;;;;4921468;29;20063;-59
2021/10/22 05:27:51;;;;;;;16.25;1.85;;;6.50;91.80;;;;;;4944925;29;20047;-58
2021/10/22 05:30:17;;;;;;;9.57;2.60;;;6.50;91.80;;;;;;4946099;29;20105;-60
2021/10/22 05:32:45;;;;;;;11.43;2.42;;;6.50;91.80;;;;;;4941778;29;20063;-58
2021/10/22 05:35:12;;;;;;;9.50;1.73;;;6.50;91.60;;;;;;4948746;28;20062;-58
2021/10/22 05:37:39;;;;;;;19.95;2.05;;;6.50;91.80;;;;;;4940875;29;20571;-59
2021/10/22 05:40:06;;;;;;;9.20;1.95;;;6.50;91.90;;;;;;4944406;29;20059;-59
2021/10/22 05:42:33;;;;;;;6.35;1.60;;;6.50;91.50;;;;;;4945702;29;20043;-59
2021/10/22 05:44:59;;;;;;;11.27;2.25;;;6.50;92.10;;;;;;4955056;28;20059;-59
2021/10/22 05:47:26;;;;;;;11.05;2.17;;;6.50;91.80;;;;;;4944220;29;20097;-58
2021/10/22 05:49:53;;;;;;;10.43;2.30;;;6.40;92.00;;;;;;4938131;29;20118;-59
2021/10/22 05:52:20;;;;;;;5.65;1.83;;;6.40;92.10;;;;;;4943476;29;20087;-59
2021/10/22 05:54:46;;;;;;;12.40;3.75;;;6.40;91.80;;;;;;4945918;29;20094;-59
2021/10/22 05:57:13;;;;;;;10.20;2.08;;;6.40;92.00;;;;;;4939275;29;20079;-58
2021/10/22 05:59:40;;;;;;;7.97;2.47;;;6.50;92.00;;;;;;4941221;29;20054;-59
2021/10/22 06:02:14;;;;;;;7.03;1.83;;;6.40;92.00;;;;;;4939819;29;20126;-59
2021/10/22 06:04:42;;;;;;;13.38;2.63;;;6.40;91.80;;;;;;4941002;28;20861;-59
2021/10/22 06:07:09;;;;;;;7.45;1.52;;;6.40;92.20;;;;;;4935260;29;20083;-58
2021/10/22 06:09:37;;;;;;;9.50;1.80;;;6.40;92.40;;;;;;4957643;28;20055;-58
2021/10/22 06:12:04;;;;;;;9.15;2.80;;;6.40;91.90;;;;;;4947920;29;20083;-59
2021/10/22 06:14:31;;;;;;;6.32;1.73;;;6.40;92.00;;;;;;4941465;28;20089;-59
2021/10/22 06:16:58;;;;;;;14.52;2.97;;;6.40;92.00;;;;;;4948845;29;20239;-59
2021/10/22 06:19:28;;;;;;;12.98;2.22;;;6.40;92.10;;;;;;4941579;29;20554;-60
2021/10/22 06:22:09;;;;;;;5.25;1.42;;;6.40;92.00;;;;;;4962363;28;20059;-59
2021/10/22 06:24:37;;;;;;;15.70;2.42;;;6.40;91.90;;;;;;4944034;29;20051;-59
2021/10/22 06:27:04;;;;;;;12.68;2.10;;;6.40;92.10;;;;;;4596491;28;10000420;-60
2021/10/22 06:29:33;;;;;;;8.45;1.73;;;6.40;91.90;;;;;;4938418;29;20098;-59
2021/10/22 06:32:01;;;;;;;6.95;1.60;;;6.50;91.80;;;;;;4941772;29;20052;-59
2021/10/22 06:34:28;;;;;;;15.82;2.58;;;6.40;91.70;;;;;;4944890;29;20051;-59
2021/10/22 06:36:55;;;;;;;8.15;2.10;;;6.40;92.00;;;;;;4941060;29;20269;-59
2021/10/22 06:39:22;;;;;;;7.45;1.58;;;6.40;91.80;;;;;;4954948;28;20067;-60
2021/10/22 06:41:50;;;;;;;10.30;1.75;;;6.50;92.00;;;;;;4947581;29;20078;-59
2021/10/22 06:44:18;;;;;;;10.43;1.30;;;6.50;91.70;;;;;;4942436;29;20570;-60
2021/10/22 06:46:45;;;;;;;19.17;3.70;;;6.50;91.80;;;;;;4960220;28;20418;-59
2021/10/22 06:49:12;;;;;;;5.82;1.92;;;6.50;91.60;;;;;;4942757;29;20059;-59
2021/10/22 06:51:39;;;;;;;12.52;1.98;;;6.50;91.90;;;;;;4943169;29;20047;-60
2021/10/22 06:54:07;;;;;;;6.03;2.15;;;6.50;91.60;;;;;;4939161;29;20055;-65
2021/10/22 06:56:35;;;;;;;10.90;2.45;;;6.50;91.60;;;;;;4933836;29;20546;-58
2021/10/22 06:59:02;;;;;;;15.70;1.48;;;6.50;91.60;;;;;;4935065;29;20216;-60
2021/10/22 07:01:28;;;;;;;10.10;1.50;;;6.60;91.60;;;;;;4942492;29;20051;-59
2021/10/22 07:03:56;;;;;;;4.80;1.13;;;6.60;91.60;;;;;;4942978;29;20046;-57
2021/10/22 07:09:07;;;;;;;7.07;1.77;;;6.70;91.40;;;;;;4956195;28;20054;-55
2021/10/22 07:11:34;;;;;;;10.60;1.92;;;6.70;91.20;;;;;;4933451;29;20561;-57
2021/10/22 07:14:05;;;;;;;7.15;1.60;;;6.80;91.10;;;;;;4934831;29;20059;-56
2021/10/22 07:16:32;;;;;;;2.10;1.00;;;6.90;91.10;;;;;;4953241;28;20503;-56
2021/10/22 07:18:59;;;;;;;7.53;1.15;;;7.00;91.20;;;;;;4945882;29;20105;-57
2021/10/22 07:21:26;;;;;;;12.60;1.60;;;7.10;90.90;;;;;;4942416;29;20043;-56
2021/10/22 07:23:53;;;;;;;8.48;1.48;;;7.20;90.70;;;;;;4942678;29;20059;-58
2021/10/22 07:26:20;;;;;;;7.20;2.00;;;7.20;90.60;;;;;;4936738;28;20091;-57
2021/10/22 07:28:48;;;;;;;8.40;2.33;;;7.30;90.30;;;;;;4950239;28;20047;-57
2021/10/22 07:31:15;;;;;;;7.68;1.45;;;7.30;90.00;;;;;;4940596;29;20130;-54
2021/10/22 07:33:42;;;;;;;7.40;1.20;;;7.40;89.90;;;;;;4941656;29;20102;-61
2021/10/22 07:36:12;;;;;;;4.75;1.52;;;7.40;90.30;;;;;;4942165;29;20055;-58
2021/10/22 07:38:41;;;;;;;7.05;1.48;;;7.50;90.00;;;;;;4936314;29;20044;-57
2021/10/22 07:41:08;;;;;;;4.90;1.33;;;7.50;89.40;;;;;;4935434;29;20062;-58
2021/10/22 07:43:36;;;;;;;7.15;1.52;;;7.50;88.40;;;;;;4932563;29;20046;-57
2021/10/22 07:46:03;;;;;;;12.60;1.88;;;7.60;88.80;;;;;;4590872;29;10000105;-59
2021/10/22 07:48:31;;;;;;;13.80;2.05;;;7.60;88.90;;;;;;4931434;29;20055;-59
2021/10/22 07:50:58;;;;;;;8.73;1.48;;;7.60;89.80;;;;;;4941853;29;20055;-57
2021/10/22 07:53:25;;;;;;;9.52;1.60;;;7.70;88.50;;;;;;4944648;28;20043;-57
2021/10/22 07:55:55;;;;;;;6.13;1.80;;;7.70;89.40;;;;;;4931713;29;20091;-58
2021/10/22 07:58:22;;;;;;;6.47;1.70;;;7.70;89.00;;;;;;4935232;28;20051;-57
2021/10/22 08:00:49;;;;;;;9.15;1.42;;;7.80;88.50;;;;;;4929167;29;20138;-58
2021/10/22 08:03:16;;;;;;;11.20;2.33;;;7.80;87.60;;;;;;4939778;28;20051;-57
2021/10/22 08:05:43;;;;;;;2.50;1.13;;;7.90;87.00;;;;;;4940852;29;20054;-58
2021/10/22 08:08:10;;;;;;;9.65;1.60;;;7.90;88.10;;;;;;4935701;29;20055;-58
2021/10/22 08:10:42;;;;;;;3.97;1.42;;;8.00;88.90;;;;;;4939138;29;20047;-57
2021/10/22 08:13:12;;;;;;;8.13;1.70;;;7.90;87.10;;;;;;4936887;29;20055;-58
2021/10/22 08:15:44;;;;;;;4.07;1.48;;;8.00;87.10;;;;;;4943308;28;20359;-57
2021/10/22 08:18:11;;;;;;;6.57;2.08;;;8.10;86.70;;;;;;4933388;29;20225;-57
2021/10/22 08:20:49;;;;;;;11.02;2.15;;;8.20;87.00;;;;;;4935258;29;20495;-58
2021/10/22 08:23:17;;;;;;;11.18;1.27;;;8.30;86.90;;;;;;4934450;29;20119;-59
2021/10/22 08:25:45;;;;;;;12.13;2.10;;;8.40;85.70;;;;;;4941335;29;20113;-59
2021/10/22 08:28:12;;;;;;;7.75;1.50;;;8.50;85.20;;;;;;4933897;28;20114;-56
2021/10/22 08:30:39;;;;;;;7.45;1.30;;;8.50;86.60;;;;;;4938596;29;20086;-58
2021/10/22 08:33:08;;;;;;;4.25;1.63;;;8.50;85.50;;;;;;4937432;29;20055;-58
2021/10/22 08:35:35;;;;;;;9.43;1.27;;;8.50;86.40;;;;;;4932676;28;20055;-58
2021/10/22 08:38:01;;;;;;;7.80;1.30;;;8.60;86.30;;;;;;4951552;28;20477;-56
2021/10/22 08:40:28;;;;;;;6.95;1.55;;;8.50;85.70;;;;;;4939980;29;20125;-57
2021/10/22 08:42:56;;;;;;;6.35;1.33;;;8.60;86.30;;;;;;4933894;29;20078;-58
2021/10/22 08:45:22;;;;;;;7.72;1.75;;;8.80;84.30;;;;;;4935557;29;20062;-58
2021/10/22 08:47:49;;;;;;;13.55;1.80;;;9.10;85.20;;;;;;4920317;29;20517;-58
2021/10/22 08:50:18;;;;;;;6.30;1.85;;;9.30;83.50;;;;;;4928866;29;20110;-60
2021/10/22 08:52:45;;;;;;;6.13;1.40;;;9.40;81.70;;;;;;4939456;29;20103;-58
2021/10/22 08:55:14;;;;;;;9.68;1.45;;;9.70;83.30;;;;;;4936014;29;20601;-58
2021/10/22 08:57:42;;;;;;;8.45;1.27;;;9.90;83.10;;;;;;4938796;29;20113;-58
2021/10/22 09:00:13;;;;;;;10.15;1.30;;;10.10;78.70;;;;;;4935182;29;20051;-58
2021/10/22 09:02:41;;;;;;;5.30;1.67;;;10.00;78.70;;;;;;4940909;29;20522;-57
2021/10/22 09:05:14;;;;;;;3.42;1.38;;;9.80;79.20;;;;;;4934623;29;20155;-59
2021/10/22 09:07:46;;;;;;;11.10;1.57;;;9.70;78.00;;;;;;4939409;29;20118;-57
2021/10/22 09:10:16;;;;;;;4.85;0.80;;;9.70;79.70;;;;;;4935374;28;20114;-56
2021/10/22 09:13:09;;;;;;;6.32;1.38;;;9.70;80.70;;;;;;4948558;28;20514;-57
2021/10/22 09:15:42;;;;;;;8.77;2.43;;;9.80;77.50;;;;;;4942810;28;20054;-58
2021/10/22 09:18:19;;;;;;;7.43;1.52;;;9.90;78.40;;;;;;4940521;29;20514;-59
2021/10/22 09:20:59;;;;;;;3.75;1.10;;;9.90;78.00;;;;;;4928349;29;20051;-57
2021/10/22 09:23:31;;;;;;;6.38;1.98;;;9.90;78.40;;;;;;4929618;29;20078;-59
2021/10/22 09:26:15;;;;;;;3.28;1.08;;;9.90;77.70;;;;;;4937812;29;20078;-59
2021/10/22 09:28:43;;;;;;;8.73;2.83;;;10.00;78.00;;;;;;4931614;29;20044;-59
2021/10/22 09:31:11;;;;;;;12.43;1.20;;;10.00;79.80;;;;;;4952078;28;20059;-56
2021/10/22 09:33:56;;;;;;;14.88;2.40;;;10.00;79.10;;;;;;4941349;29;20103;-57
2021/10/22 09:36:37;;;;;;;10.95;1.52;;;10.10;77.50;;;;;;4945653;29;20105;-58
2021/10/22 09:39:20;;;;;;;16.75;1.83;;;10.10;78.00;;;;;;4936794;29;20039;-59
2021/10/22 09:41:48;;;;;;;10.73;1.70;;;10.10;77.30;;;;;;4928605;29;20118;-58
2021/10/22 09:44:37;;;;;;;6.82;1.40;;;10.30;80.40;;;;;;4938046;29;20051;-59
2021/10/22 09:47:04;;;;;;;5.80;1.10;;;10.30;79.00;;;;;;4929572;29;20051;-59
2021/10/22 09:49:32;;;;;;;15.82;2.35;;;10.40;77.80;;;;;;4936002;28;20130;-57
2021/10/22 09:52:00;;;;;;;4.75;1.20;;;10.40;77.10;;;;;;4955028;28;20087;-57
2021/10/22 09:54:30;;;;;;;3.83;1.10;;;10.40;79.80;;;;;;4930069;29;20106;-57
2021/10/22 09:57:02;;;;;;;6.72;1.42;;;10.40;79.20;;;;;;4939700;29;20096;-56
2021/10/22 09:59:29;;;;;;;5.88;1.35;;;10.40;79.00;;;;;;4945403;28;20052;-59
2021/10/22 10:01:56;;;;;;;6.60;1.45;;;10.50;79.40;;;;;;4941302;29;20117;-57
2021/10/22 10:04:24;;;;;;;3.83;1.10;;;10.50;78.10;;;;;;4942379;29;20495;-58
2021/10/22 10:07:06;;;;;;;3.67;1.17;;;10.70;76.90;;;;;;4940751;29;20057;-59
2021/10/22 10:09:33;;;;;;;4.45;1.20;;;10.60;77.20;;;;;;4935754;29;20056;-58
2021/10/22 10:12:03;;;;;;;3.13;0.80;;;10.70;76.80;;;;;;4941310;29;20063;-58
2021/10/22 10:14:30;;;;;;;12.57;1.90;;;10.80;79.10;;;;;;4934290;29;20070;-60
2021/10/22 10:16:58;;;;;;;7.97;1.35;;;10.80;76.70;;;;;;4940530;29;20079;-58
2021/10/22 10:19:30;;;;;;;7.18;1.35;;;10.80;77.70;;;;;;4937168;29;20082;-57
2021/10/22 10:22:03;;;;;;;4.97;0.95;;;10.80;75.10;;;;;;4925503;29;20098;-57
2021/10/22 10:24:36;;;;;;;7.60;1.40;;;10.90;75.60;;;;;;4934588;28;20510;-59
2021/10/22 10:27:07;;;;;;;3.33;0.95;;;10.90;76.60;;;;;;4947367;28;20059;-57
2021/10/22 10:29:39;;;;;;;7.80;1.02;;;10.90;75.20;;;;;;4950352;28;20434;-60
2021/10/22 10:32:08;;;;;;;3.85;1.15;;;11.00;76.30;;;;;;4935958;29;20058;-57
2021/10/22 10:34:44;;;;;;;3.50;0.88;;;11.00;76.80;;;;;;4955172;28;20055;-57
2021/10/22 10:37:25;;;;;;;9.88;3.03;;;11.00;74.70;;;;;;4930733;29;20138;-58
2021/10/22 10:39:56;;;;;;;8.10;1.70;;;11.00;75.50;;;;;;4927502;29;20051;-58
2021/10/22 10:42:25;;;;;;;6.38;1.38;;;11.10;76.50;;;;;;4936304;29;20118;-56
2021/10/22 10:44:56;;;;;;;4.35;1.00;;;11.20;74.80;;;;;;4929854;29;20060;-57
2021/10/22 10:47:30;;;;;;;6.22;1.30;;;11.20;75.20;;;;;;4931529;29;20059;-57
2021/10/22 10:50:04;;;;;;;5.35;1.30;;;11.40;76.80;;;;;;4931876;29;20197;-56
2021/10/22 10:52:40;;;;;;;1.58;0.80;;;11.50;74.00;;;;;;4930720;29;20459;-57
2021/10/22 10:55:33;;;;;;;7.63;2.42;;;11.50;74.70;;;;;;4931933;29;20059;-57
2021/10/22 10:58:09;;;;;;;3.45;1.08;;;11.50;73.90;;;;;;4929362;29;20118;-57
2021/10/22 11:00:41;;;;;;;3.58;0.80;;;11.50;73.30;;;;;;4923875;29;20127;-58
2021/10/22 11:03:10;;;;;;;5.75;1.13;;;11.50;74.60;;;;;;4928877;29;20047;-56
2021/10/22 11:05:56;;;;;;;6.93;1.17;;;11.50;74.70;;;;;;4944912;28;20087;-57
2021/10/22 11:08:30;;;;;;;5.85;1.30;;;11.50;73.70;;;;;;4931257;29;20107;-57
2021/10/22 11:10:58;;;;;;;;;;;11.50;74.00;;;;;;4928151;29;20121;-58
2021/10/22 11:13:25;;;;;;;4.43;1.00;;;11.40;74.10;;;;;;4936114;28;19986;-58
2021/10/22 11:15:51;;;;;;;4.15;0.98;;;11.50;75.30;;;;;;4940440;29;20079;-58
2021/10/22 11:18:20;;;;;;;5.70;0.95;;;11.60;76.40;;;;;;4927646;29;20078;-57
2021/10/22 11:21:02;;;;;;;5.15;1.40;;;11.60;75.30;;;;;;4945526;28;20055;-56
2021/10/22 11:23:29;;;;;;;5.22;1.50;;;11.60;75.90;;;;;;4955896;28;20105;-58
2021/10/22 11:25:57;;;;;;;5.68;1.77;;;11.60;74.90;;;;;;4933996;29;20063;-56
2021/10/22 11:28:30;;;;;;;3.47;1.00;;;11.60;74.20;;;;;;4933869;28;20047;-57
2021/10/22 11:30:58;;;;;;;3.15;1.38;;;11.70;75.30;;;;;;4933490;29;20506;-58
2021/10/22 11:33:26;;;;;;;8.73;1.90;;;11.80;76.50;;;;;;4940804;29;20058;-57
2021/10/22 11:35:53;;;;;;;7.28;1.30;;;11.80;74.70;;;;;;4950737;28;20434;-57
2021/10/22 11:38:25;;;;;;;7.30;2.05;;;11.80;74.00;;;;;;4940478;29;20578;-58
2021/10/22 11:40:53;;;;;;;6.25;1.27;;;11.80;74.00;;;;;;4937477;29;20057;-56
2021/10/22 11:43:20;;;;;;;4.03;1.02;;;11.80;74.90;;;;;;4931500;29;20087;-55
2021/10/22 11:45:53;;;;;;;9.75;1.10;;;11.90;75.50;;;;;;4932799;29;20059;-56
2021/10/22 11:48:32;;;;;;;7.05;1.38;;;12.00;75.00;;;;;;4931332;29;20496;-56
2021/10/22 11:50:59;;;;;;;3.97;1.27;;;11.90;73.30;;;;;;4925708;29;20055;-59
2021/10/22 11:53:26;;;;;;;2.90;0.80;;;12.10;75.30;;;;;;4945467;28;20139;-54
2021/10/22 11:56:03;;;;;;;4.97;1.50;;;12.20;74.70;;;;;;4935570;29;20129;-56
2021/10/22 11:58:36;;;;;;;6.85;1.40;;;12.10;74.80;;;;;;4933013;29;20185;-57
2021/10/22 12:01:03;;;;;;;6.28;1.20;;;12.20;74.40;;;;;;4928719;29;20102;-55
2021/10/22 12:03:32;;;;;;;3.40;0.80;;;12.20;76.10;;;;;;4930889;29;20087;-56
2021/10/22 12:06:01;;;;;;;4.47;1.38;;;12.30;74.40;;;;;;4935645;29;20055;-57
2021/10/22 12:08:31;;;;;;;3.50;0.70;;;12.30;75.00;;;;;;4934407;29;20135;-57
2021/10/22 12:11:00;;;;;;;3.22;0.70;;;12.30;74.30;;;;;;4928161;29;20062;-58
2021/10/22 12:13:33;;;;;;;4.72;1.40;;;12.40;75.00;;;;;;4938354;29;20055;-56
2021/10/22 12:16:12;;;;;;;6.07;2.10;;;12.40;74.30;;;;;;4931541;29;20055;-56
2021/10/22 12:18:43;;;;;;;2.13;0.65;;;12.50;74.40;;;;;;4931513;29;20119;-58
2021/10/22 12:21:11;;;;;;;1.85;1.05;;;12.60;74.10;;;;;;4953040;28;20079;-57
2021/10/22 12:23:39;;;;;;;5.07;2.08;;;12.70;74.80;;;;;;4948283;28;20055;-57
2021/10/22 12:26:22;;;;;;;4.30;0.82;;;12.80;74.30;;;;;;4937237;29;20051;-55
2021/10/22 12:29:11;;;;;;;4.27;1.27;;;12.80;73.10;;;;;;4936184;29;20604;-55
2021/10/22 12:31:44;;;;;;;3.78;0.80;;;12.80;73.50;;;;;;4933235;29;20043;-58
2021/10/22 12:34:15;;;;;;;6.65;1.70;;;12.70;73.90;;;;;;4939302;29;20059;-57
2021/10/22 12:36:42;;;;;;;11.75;1.67;;;12.60;74.50;;;;;;4947756;28;20522;-58
2021/10/22 12:39:22;;;;;;;5.43;1.35;;;12.70;74.50;;;;;;4935167;28;20098;-58
2021/10/22 12:41:49;;;;;;;8.35;1.05;;;12.80;73.70;;;;;;4924071;29;20471;-57
2021/10/22 12:44:18;;;;;;;5.47;2.20;;;12.70;73.60;;;;;;4936929;29;20059;-55
2021/10/22 12:46:55;;;;;;;3.38;1.17;;;12.70;73.80;;;;;;4930962;29;20059;-57
2021/10/22 12:49:25;;;;;;;5.53;0.85;;;12.80;74.10;;;;;;4955612;28;20058;-55
2021/10/22 12:52:00;;;;;;;6.68;1.30;;;12.90;74.10;;;;;;4953306;28;20170;-57
2021/10/22 12:54:27;;;;;;;4.75;1.23;;;13.00;73.70;;;;;;4938086;29;20055;-58
2021/10/22 12:56:59;;;;;;;2.60;1.08;;;13.20;73.50;;;;;;4934677;29;20044;-58
2021/10/22 12:59:30;;;;;;;8.57;1.20;;;13.30;71.40;;;;;;4922359;29;20071;-58
2021/10/22 13:01:56;;;;;;;7.45;1.23;;;13.20;71.30;;;;;;4937159;29;20237;-58
2021/10/22 13:04:25;;;;;;;4.20;1.00;;;13.20;72.60;;;;;;4946986;28;20111;-56